Time;durP1;ratioP1;P1;durP2;ratioP2;P2;SDS_P1;SDS_P2;PMS_P1;PMS_P2;Temp;Humidity;BMP_temperature;BMP_pressure;BME280_temperature;BME280_humidity;BME280_pressure;Samples;Min_cycle;Max_cycle;Signal;HPM_P1;HPM_P2
2023/04/08 00:02:05;;;;;;;9.27;4.30;;;4.60;99.90;;;;;;6188131;23;20361;-87
2023/04/08 00:04:31;;;;;;;7.97;3.40;;;4.60;99.90;;;;;;6235505;23;20020;-86
2023/04/08 00:06:56;;;;;;;9.10;4.07;;;4.50;99.90;;;;;;6240678;22;20020;-84
2023/04/08 00:09:22;;;;;;;7.43;3.70;;;4.50;99.90;;;;;;6240883;22;20017;-85
2023/04/08 00:11:48;;;;;;;8.33;4.27;;;4.60;99.90;;;;;;6240134;22;20016;-84
2023/04/08 00:14:13;;;;;;;8.37;4.00;;;4.60;99.90;;;;;;6214529;22;20008;-84
2023/04/08 00:16:39;;;;;;;8.47;3.87;;;4.60;99.90;;;;;;6214783;22;20091;-86
2023/04/08 00:19:05;;;;;;;6.80;3.83;;;4.60;99.90;;;;;;6214907;22;20076;-83
2023/04/08 00:21:31;;;;;;;7.20;3.85;;;4.60;99.90;;;;;;6239966;23;20031;-88
2023/04/08 00:23:57;;;;;;;7.23;3.73;;;4.50;99.90;;;;;;6240130;23;20091;-87
2023/04/08 00:26:23;;;;;;;8.23;4.20;;;4.50;99.90;;;;;;6214556;23;20016;-83
2023/04/08 00:28:48;;;;;;;8.23;4.27;;;4.50;99.90;;;;;;6240364;23;20016;-86
2023/04/08 00:31:14;;;;;;;8.03;3.43;;;4.50;99.90;;;;;;6239721;23;20020;-87
2023/04/08 00:33:40;;;;;;;9.77;4.27;;;4.40;99.90;;;;;;6239718;23;20031;-85
2023/04/08 00:36:05;;;;;;;7.90;4.07;;;4.50;99.90;;;;;;6239651;22;20016;-85
2023/04/08 00:38:31;;;;;;;8.20;4.03;;;4.50;99.90;;;;;;6214503;23;20557;-86
2023/04/08 00:40:57;;;;;;;8.10;4.00;;;4.50;99.90;;;;;;6239933;22;20344;-84
2023/04/08 00:43:23;;;;;;;7.77;3.70;;;4.60;99.90;;;;;;6241443;22;20016;-86
2023/04/08 00:45:49;;;;;;;8.07;4.17;;;4.50;99.90;;;;;;6240041;22;20024;-86
2023/04/08 00:48:14;;;;;;;7.97;4.07;;;4.60;99.90;;;;;;6239789;23;20055;-87
2023/04/08 00:50:42;;;;;;;7.10;4.03;;;4.60;99.90;;;;;;6214526;23;20027;-86
2023/04/08 00:53:08;;;;;;;7.47;4.10;;;4.60;99.90;;;;;;6239500;23;20020;-86
2023/04/08 00:55:34;;;;;;;8.18;4.35;;;4.60;99.90;;;;;;6239433;23;20028;-86
2023/04/08 00:58:00;;;;;;;8.03;4.10;;;4.60;99.90;;;;;;6241189;22;20573;-86
2023/04/08 01:00:29;;;;;;;8.40;3.80;;;4.60;99.90;;;;;;6241289;22;20362;-86
2023/04/08 01:03:09;;;;;;;9.23;3.72;;;4.70;99.90;;;;;;6244147;22;20051;-84
2023/04/08 01:06:14;;;;;;;7.10;3.50;;;4.70;99.90;;;;;;6244401;22;20012;-83
2023/04/08 01:08:41;;;;;;;8.65;3.92;;;4.70;99.90;;;;;;6219184;22;20024;-86
2023/04/08 01:11:10;;;;;;;8.50;4.82;;;4.60;99.90;;;;;;6219275;22;20012;-85
2023/04/08 01:13:39;;;;;;;9.65;4.50;;;4.60;99.90;;;;;;6245469;22;20456;-84
2023/04/08 01:16:09;;;;;;;8.63;4.15;;;4.60;99.90;;;;;;6245774;22;20071;-86
2023/04/08 01:18:36;;;;;;;8.10;3.83;;;4.60;99.90;;;;;;6221253;22;20008;-83
2023/04/08 01:21:04;;;;;;;9.60;3.85;;;4.60;99.90;;;;;;6220871;22;20020;-87
2023/04/08 01:23:29;;;;;;;9.18;4.30;;;4.70;99.90;;;;;;6220636;22;20436;-85
2023/04/08 01:25:56;;;;;;;8.90;4.57;;;4.70;99.90;;;;;;6245829;22;20018;-85
2023/04/08 01:28:25;;;;;;;10.00;4.82;;;4.60;99.90;;;;;;6246064;22;20031;-85
2023/04/08 01:30:55;;;;;;;9.57;4.45;;;4.50;99.90;;;;;;6245976;22;20511;-86
2023/04/08 01:33:22;;;;;;;8.55;4.82;;;4.40;99.90;;;;;;6245287;22;20030;-84
2023/04/08 01:35:47;;;;;;;9.00;4.03;;;4.40;99.90;;;;;;6245464;22;20027;-86
2023/04/08 01:38:16;;;;;;;8.70;3.77;;;4.40;99.90;;;;;;6246105;22;20016;-85
2023/04/08 01:40:43;;;;;;;7.95;4.43;;;4.40;99.90;;;;;;6220578;22;20030;-85
2023/04/08 01:43:12;;;;;;;8.57;4.80;;;4.40;99.90;;;;;;6195704;22;20022;-85
2023/04/08 01:45:37;;;;;;;9.10;4.60;;;4.40;99.90;;;;;;6245785;22;20031;-86
2023/04/08 01:48:04;;;;;;;9.67;4.90;;;4.40;99.90;;;;;;6220469;22;20016;-87
2023/04/08 01:50:31;;;;;;;9.73;4.60;;;4.50;99.90;;;;;;6220946;22;20382;-85
2023/04/08 01:52:57;;;;;;;;;;;4.40;99.90;;;;;;6246355;22;20111;-86
2023/04/08 01:55:25;;;;;;;11.32;5.40;;;4.40;99.90;;;;;;6272801;22;20334;-86
2023/04/08 01:57:53;;;;;;;8.45;4.65;;;4.30;99.90;;;;;;6245920;22;20016;-85
2023/04/08 02:00:23;;;;;;;9.93;5.47;;;4.30;99.90;;;;;;6245657;22;20023;-87
2023/04/08 02:02:49;;;;;;;9.73;5.15;;;4.20;99.90;;;;;;6245446;22;20452;-86
2023/04/08 02:05:15;;;;;;;11.50;5.40;;;4.30;99.90;;;;;;6195379;22;20072;-87
2023/04/08 02:07:41;;;;;;;10.53;5.30;;;4.20;99.90;;;;;;6272798;22;20023;-87
2023/04/08 02:10:07;;;;;;;10.20;5.60;;;4.20;99.90;;;;;;6220506;22;20098;-87
2023/04/08 02:12:33;;;;;;;11.60;5.53;;;4.20;99.90;;;;;;6220658;22;20068;-87
2023/04/08 02:14:59;;;;;;;10.80;5.97;;;4.20;99.90;;;;;;6272574;22;20262;-85
2023/04/08 02:17:46;;;;;;;8.85;5.05;;;4.20;99.90;;;;;;6272632;22;20088;-85
2023/04/08 02:20:23;;;;;;;10.23;5.68;;;4.10;99.90;;;;;;6245725;22;20051;-87
2023/04/08 02:23:13;;;;;;;11.27;6.10;;;4.20;99.90;;;;;;6272597;22;20063;-87
2023/04/08 02:25:42;;;;;;;10.10;5.70;;;4.20;99.90;;;;;;6245612;22;20035;-85
2023/04/08 02:28:10;;;;;;;10.50;5.65;;;4.20;99.90;;;;;;6245728;22;20016;-88
2023/04/08 02:30:40;;;;;;;10.98;5.88;;;4.20;99.90;;;;;;6220464;22;20012;-88
2023/04/08 02:33:07;;;;;;;11.70;5.97;;;4.20;99.90;;;;;;6245611;22;20012;-89
2023/04/08 02:35:33;;;;;;;12.98;6.97;;;4.10;99.90;;;;;;6245707;22;20016;-87
2023/04/08 02:37:58;;;;;;;11.50;6.40;;;4.20;99.90;;;;;;6245741;22;20076;-87
2023/04/08 02:40:26;;;;;;;13.35;6.13;;;4.20;99.90;;;;;;6272582;22;20340;-85
2023/04/08 02:42:53;;;;;;;14.68;6.65;;;4.20;99.90;;;;;;6245564;22;20348;-88
2023/04/08 02:45:20;;;;;;;11.55;5.95;;;4.20;99.90;;;;;;6220659;22;20020;-85
2023/04/08 02:47:45;;;;;;;11.75;6.63;;;4.20;99.90;;;;;;6220590;22;20012;-87
2023/04/08 02:50:11;;;;;;;12.57;6.20;;;4.20;99.90;;;;;;6195440;22;20502;-85
2023/04/08 02:52:37;;;;;;;15.27;6.67;;;4.20;99.90;;;;;;6220274;22;20011;-85
2023/04/08 02:55:05;;;;;;;14.73;7.07;;;4.20;99.90;;;;;;6272432;22;20020;-86
2023/04/08 02:57:31;;;;;;;13.65;7.25;;;4.10;99.90;;;;;;6171458;22;20060;-86
2023/04/08 02:59:57;;;;;;;13.33;7.67;;;4.20;99.90;;;;;;6245358;22;20523;-86
2023/04/08 03:02:22;;;;;;;15.87;7.30;;;4.20;99.90;;;;;;6245502;22;20246;-85
2023/04/08 03:04:48;;;;;;;12.03;6.40;;;4.20;99.90;;;;;;6245426;22;20016;-88
2023/04/08 03:07:14;;;;;;;12.82;6.45;;;4.20;99.90;;;;;;6220238;22;20490;-85
2023/04/08 03:09:40;;;;;;;13.87;6.80;;;4.20;99.90;;;;;;6245680;22;20024;-85
2023/04/08 03:12:05;;;;;;;12.97;6.60;;;4.20;99.90;;;;;;6245745;22;20018;-87
2023/04/08 03:14:31;;;;;;;12.20;6.57;;;4.20;99.90;;;;;;6245707;22;20024;-87
2023/04/08 03:16:57;;;;;;;12.97;6.90;;;4.20;99.90;;;;;;6245587;22;20016;-84
2023/04/08 03:19:22;;;;;;;12.53;6.37;;;4.20;99.90;;;;;;6220300;22;20102;-87
2023/04/08 03:21:48;;;;;;;12.70;6.77;;;4.20;99.90;;;;;;6245633;22;20023;-87
2023/04/08 03:24:14;;;;;;;12.57;7.00;;;4.20;99.90;;;;;;6220388;22;20120;-86
2023/04/08 03:26:40;;;;;;;15.77;6.97;;;4.20;99.90;;;;;;6246005;22;20019;-86
2023/04/08 03:29:05;;;;;;;13.33;7.37;;;4.20;99.90;;;;;;6219989;22;20012;-84
2023/04/08 03:31:31;;;;;;;13.03;6.70;;;4.20;99.90;;;;;;6245416;22;20400;-87
2023/04/08 03:33:57;;;;;;;13.32;6.88;;;4.20;99.90;;;;;;6219764;22;20024;-85
2023/04/08 03:36:23;;;;;;;13.07;6.60;;;4.20;99.90;;;;;;6272652;22;20016;-85
2023/04/08 03:38:49;;;;;;;13.63;6.60;;;4.20;99.90;;;;;;6272570;22;20405;-88
2023/04/08 03:41:15;;;;;;;14.97;7.00;;;4.20;99.90;;;;;;6219943;22;20058;-85
2023/04/08 03:43:40;;;;;;;13.50;6.97;;;4.20;99.90;;;;;;6272295;22;20083;-85
2023/04/08 03:46:06;;;;;;;14.33;7.80;;;4.20;99.90;;;;;;6220193;22;20703;-88
2023/04/08 03:48:32;;;;;;;15.70;7.60;;;4.10;99.90;;;;;;6220049;22;20326;-85
2023/04/08 03:50:57;;;;;;;13.37;6.50;;;4.10;99.90;;;;;;6220128;22;20019;-86
2023/04/08 03:53:23;;;;;;;11.80;6.70;;;4.10;99.90;;;;;;6245591;22;20020;-85
2023/04/08 03:55:52;;;;;;;15.70;7.60;;;4.10;99.90;;;;;;6245395;22;20103;-86
2023/04/08 03:58:18;;;;;;;14.90;7.07;;;4.20;99.90;;;;;;6245446;22;20068;-87
2023/04/08 04:00:43;;;;;;;16.07;7.47;;;4.20;99.90;;;;;;6220034;22;20023;-86
2023/04/08 04:03:11;;;;;;;15.33;7.80;;;4.10;99.90;;;;;;6244978;22;20054;-85
2023/04/08 04:05:38;;;;;;;15.10;7.78;;;4.10;99.90;;;;;;6245739;22;20326;-85
2023/04/08 04:08:04;;;;;;;13.38;6.90;;;4.00;99.90;;;;;;6219919;22;20023;-87
2023/04/08 04:10:30;;;;;;;15.98;8.88;;;4.00;99.90;;;;;;6245172;22;20015;-87
2023/04/08 04:12:55;;;;;;;16.10;7.83;;;4.00;99.90;;;;;;6245061;22;20068;-87
2023/04/08 04:15:21;;;;;;;14.43;7.87;;;4.00;99.90;;;;;;6272155;22;20083;-86
2023/04/08 04:17:49;;;;;;;12.63;6.80;;;4.10;99.90;;;;;;6219721;22;20012;-87
2023/04/08 04:20:15;;;;;;;16.73;8.35;;;4.10;99.90;;;;;;6195142;22;20106;-85
2023/04/08 04:22:41;;;;;;;14.45;7.57;;;4.10;99.90;;;;;;6244862;22;20016;-86
2023/04/08 04:25:07;;;;;;;14.57;6.77;;;4.10;99.90;;;;;;6272159;22;20023;-87
2023/04/08 04:27:34;;;;;;;13.95;6.97;;;4.10;99.90;;;;;;6170008;22;20051;-85
2023/04/08 04:29:59;;;;;;;13.38;6.72;;;4.10;99.90;;;;;;6194809;22;20020;-85
2023/04/08 04:32:25;;;;;;;12.07;6.63;;;4.00;99.90;;;;;;6245104;22;20016;-87
2023/04/08 04:34:51;;;;;;;12.77;6.53;;;3.90;99.90;;;;;;6271909;22;20042;-86
2023/04/08 04:37:17;;;;;;;13.40;6.25;;;3.70;99.90;;;;;;6245042;22;20087;-85
2023/04/08 04:39:43;;;;;;;13.53;6.93;;;3.70;99.90;;;;;;6245086;22;20012;-87
2023/04/08 04:42:09;;;;;;;12.85;6.35;;;3.70;99.90;;;;;;6219815;22;20456;-85
2023/04/08 04:44:35;;;;;;;13.07;6.63;;;3.60;99.90;;;;;;6272172;22;20022;-88
2023/04/08 04:47:00;;;;;;;15.37;6.90;;;3.50;99.90;;;;;;6220236;22;20019;-87
2023/04/08 04:49:26;;;;;;;14.52;6.70;;;3.50;99.90;;;;;;6221035;22;20020;-87
2023/04/08 04:51:52;;;;;;;11.95;6.90;;;3.40;99.90;;;;;;6220861;22;20015;-86
2023/04/08 04:54:17;;;;;;;11.90;6.70;;;3.40;99.90;;;;;;6273069;22;20067;-86
2023/04/08 04:56:43;;;;;;;13.57;7.33;;;3.30;99.90;;;;;;6246163;22;20023;-84
2023/04/08 04:59:09;;;;;;;16.33;8.80;;;3.30;99.90;;;;;;6246161;22;20049;-84
2023/04/08 05:01:35;;;;;;;13.50;7.30;;;3.30;99.90;;;;;;6273108;22;20087;-85
2023/04/08 05:04:00;;;;;;;15.07;7.67;;;3.40;99.90;;;;;;6245785;22;20018;-88
2023/04/08 05:06:26;;;;;;;16.43;7.90;;;3.50;99.90;;;;;;6196296;22;20110;-88
2023/04/08 05:08:52;;;;;;;15.67;8.30;;;3.50;99.90;;;;;;6221265;22;20016;-86
2023/04/08 05:11:18;;;;;;;16.70;8.27;;;3.60;99.90;;;;;;6195609;22;20019;-85
2023/04/08 05:13:44;;;;;;;16.97;8.37;;;3.70;99.90;;;;;;6220888;22;20149;-85
2023/04/08 05:16:10;;;;;;;17.52;8.27;;;3.70;99.90;;;;;;6220693;22;20397;-87
2023/04/08 05:18:35;;;;;;;16.63;7.80;;;3.80;99.90;;;;;;6246337;22;20012;-86
2023/04/08 05:21:02;;;;;;;15.67;8.03;;;3.80;99.90;;;;;;6220724;22;20031;-86
2023/04/08 05:23:27;;;;;;;15.20;7.60;;;3.90;99.90;;;;;;6195824;22;20019;-87
2023/04/08 05:25:53;;;;;;;17.98;8.48;;;3.90;99.90;;;;;;6220797;22;20085;-85
2023/04/08 05:28:19;;;;;;;16.17;7.40;;;4.00;99.90;;;;;;6245613;22;20016;-87
2023/04/08 05:30:52;;;;;;;16.13;8.27;;;4.00;99.90;;;;;;6246018;22;20020;-86
2023/04/08 05:33:18;;;;;;;17.33;7.85;;;4.00;99.90;;;;;;6245707;22;20352;-86
2023/04/08 05:35:45;;;;;;;14.15;7.50;;;4.10;99.90;;;;;;6245700;22;20016;-87
2023/04/08 05:38:11;;;;;;;17.23;8.02;;;4.10;99.90;;;;;;6272575;22;20048;-85
2023/04/08 05:40:36;;;;;;;16.00;7.53;;;4.10;99.90;;;;;;6272818;22;20038;-86
2023/04/08 05:43:02;;;;;;;17.53;7.70;;;4.20;99.90;;;;;;6245690;22;20154;-86
2023/04/08 05:45:28;;;;;;;16.17;7.93;;;4.20;99.90;;;;;;6245927;22;20015;-87
2023/04/08 05:47:54;;;;;;;15.20;6.77;;;4.30;99.90;;;;;;6273116;22;20012;-86
2023/04/08 05:50:20;;;;;;;14.97;7.10;;;4.40;99.90;;;;;;6220459;22;20341;-88
2023/04/08 05:52:46;;;;;;;17.85;7.95;;;4.40;99.90;;;;;;6245972;22;20022;-86
2023/04/08 05:55:12;;;;;;;15.83;6.70;;;4.40;99.90;;;;;;6245639;22;20095;-83
2023/04/08 05:57:38;;;;;;;16.38;7.85;;;4.50;99.90;;;;;;6272488;22;20440;-87
2023/04/08 06:00:07;;;;;;;15.93;7.87;;;4.60;99.90;;;;;;6245973;22;20012;-88
2023/04/08 06:02:33;;;;;;;16.15;7.53;;;4.60;99.90;;;;;;6245830;22;20260;-88
2023/04/08 06:04:59;;;;;;;15.82;7.90;;;4.70;99.90;;;;;;6221066;22;20068;-89
2023/04/08 06:07:25;;;;;;;15.35;7.38;;;4.70;99.90;;;;;;6195899;22;20047;-89
2023/04/08 06:09:51;;;;;;;16.00;7.27;;;4.80;99.90;;;;;;6196367;22;20445;-89
2023/04/08 06:12:16;;;;;;;16.33;7.47;;;4.80;99.90;;;;;;6220835;22;20441;-89
2023/04/08 06:14:42;;;;;;;18.63;7.60;;;4.90;99.90;;;;;;6195739;22;20519;-89
2023/04/08 06:17:08;;;;;;;16.40;7.87;;;4.90;99.90;;;;;;6171226;22;20016;-89
2023/04/08 06:19:34;;;;;;;16.40;7.53;;;5.00;99.90;;;;;;6195415;22;20054;-88
2023/04/08 06:22:00;;;;;;;15.68;7.15;;;5.00;99.90;;;;;;6195757;22;20020;-86
2023/04/08 06:24:26;;;;;;;15.67;7.07;;;5.10;99.90;;;;;;6245765;22;20023;-87
2023/04/08 06:26:53;;;;;;;16.55;7.20;;;5.20;99.90;;;;;;6220574;22;20028;-87
2023/04/08 06:29:22;;;;;;;13.40;6.78;;;5.20;99.90;;;;;;6245623;22;20012;-87
2023/04/08 06:31:48;;;;;;;15.25;6.95;;;5.30;99.90;;;;;;6272749;22;20344;-88
2023/04/08 06:34:14;;;;;;;14.57;7.25;;;5.30;99.90;;;;;;6195676;22;20027;-88
2023/04/08 06:36:40;;;;;;;13.27;6.03;;;5.40;99.90;;;;;;6245508;22;20015;-88
2023/04/08 06:39:06;;;;;;;15.90;6.70;;;5.50;99.90;;;;;;6220399;22;20052;-88
2023/04/08 06:41:31;;;;;;;12.93;6.77;;;5.70;99.90;;;;;;6220620;22;20095;-87
2023/04/08 06:43:57;;;;;;;15.20;7.10;;;5.90;99.90;;;;;;6245990;22;20340;-89
2023/04/08 06:46:29;;;;;;;15.73;6.97;;;6.10;99.90;;;;;;6220701;22;20020;-86
2023/04/08 06:48:55;;;;;;;14.23;6.72;;;6.30;99.90;;;;;;6220124;22;20148;-88
2023/04/08 06:51:20;;;;;;;13.67;6.40;;;6.50;99.90;;;;;;6220404;22;20044;-87
2023/04/08 06:53:46;;;;;;;10.87;5.73;;;6.50;99.90;;;;;;6245366;22;20012;-88
2023/04/08 06:56:12;;;;;;;12.00;5.90;;;6.50;99.90;;;;;;6220588;22;20076;-87
2023/04/08 06:58:38;;;;;;;11.93;5.80;;;6.50;99.90;;;;;;6220411;22;20015;-87
2023/04/08 07:01:03;;;;;;;11.73;6.30;;;6.40;99.90;;;;;;6245888;22;20020;-87
2023/04/08 07:03:29;;;;;;;11.10;5.80;;;6.40;99.90;;;;;;6245576;22;20019;-87
2023/04/08 07:05:55;;;;;;;11.87;5.73;;;6.30;99.90;;;;;;6220360;22;20024;-88
2023/04/08 07:08:20;;;;;;;12.70;5.33;;;6.30;99.90;;;;;;6170588;22;20042;-87
2023/04/08 07:10:46;;;;;;;11.63;5.67;;;6.30;99.90;;;;;;6271837;22;20019;-87
2023/04/08 07:13:12;;;;;;;12.90;6.40;;;6.20;99.90;;;;;;6245396;22;20018;-87
2023/04/08 07:15:37;;;;;;;11.80;5.83;;;6.20;99.90;;;;;;6272590;22;20011;-87
2023/04/08 07:18:04;;;;;;;14.17;6.43;;;6.30;99.90;;;;;;6220165;22;20016;-87
2023/04/08 07:20:30;;;;;;;;;;;6.30;99.90;;;;;;6220854;22;20203;-86
2023/04/08 07:22:55;;;;;;;11.60;5.93;;;6.30;99.90;;;;;;6272323;22;19983;-88
2023/04/08 07:25:21;;;;;;;12.00;5.43;;;6.20;99.90;;;;;;6195036;22;20020;-87
2023/04/08 07:27:47;;;;;;;11.37;6.10;;;6.30;99.90;;;;;;6170385;22;20027;-88
2023/04/08 07:30:16;;;;;;;11.97;5.83;;;6.30;99.90;;;;;;6220061;22;20016;-87
2023/04/08 07:32:45;;;;;;;11.73;5.70;;;6.20;99.90;;;;;;6196784;22;20356;-86
2023/04/08 07:35:10;;;;;;;11.70;5.90;;;6.20;99.90;;;;;;6272172;22;20020;-85
2023/04/08 07:37:36;;;;;;;10.17;5.30;;;6.20;99.90;;;;;;6272351;22;20686;-87
2023/04/08 07:40:02;;;;;;;11.73;5.70;;;6.20;99.90;;;;;;6245228;22;20030;-86
2023/04/08 07:42:28;;;;;;;14.17;6.10;;;6.20;99.90;;;;;;6220390;22;20011;-88
2023/04/08 07:44:54;;;;;;;14.03;6.43;;;6.20;99.90;;;;;;6245113;22;20027;-89
2023/04/08 07:47:19;;;;;;;13.27;6.63;;;6.20;99.90;;;;;;6245629;22;20016;-87
2023/04/08 07:49:46;;;;;;;13.63;6.23;;;6.10;99.90;;;;;;6195326;22;20107;-89
2023/04/08 07:52:12;;;;;;;;;;;6.20;99.90;;;;;;6246000;22;20024;-90
2023/04/08 07:54:38;;;;;;;12.93;5.72;;;6.10;99.90;;;;;;6220335;22;19971;-86
2023/04/08 07:57:03;;;;;;;14.40;6.47;;;6.20;99.90;;;;;;6220124;22;20011;-90
2023/04/08 07:59:31;;;;;;;12.90;6.30;;;6.20;99.90;;;;;;6195188;22;20023;-88
2023/04/08 08:01:57;;;;;;;14.35;6.22;;;6.20;99.90;;;;;;6245249;22;20016;-88
2023/04/08 08:04:24;;;;;;;14.33;6.70;;;6.20;99.90;;;;;;6243594;22;20056;-88
2023/04/08 08:06:51;;;;;;;12.30;6.68;;;6.30;99.90;;;;;;6245922;22;20020;-89
2023/04/08 08:09:16;;;;;;;15.73;7.38;;;6.20;99.90;;;;;;6195142;22;20147;-87
2023/04/08 08:11:42;;;;;;;14.90;6.97;;;6.30;99.90;;;;;;6195119;22;20047;-89
2023/04/08 08:14:10;;;;;;;12.40;6.37;;;6.20;99.90;;;;;;6170074;22;20478;-88
2023/04/08 08:16:37;;;;;;;14.20;6.35;;;6.30;99.90;;;;;;6220135;22;20080;-88
2023/04/08 08:19:04;;;;;;;;;;;6.30;99.90;;;;;;6245633;22;20014;-89
2023/04/08 08:21:30;;;;;;;14.02;6.45;;;6.30;99.90;;;;;;6243873;22;19926;-89
2023/04/08 08:23:56;;;;;;;12.90;6.47;;;6.30;99.90;;;;;;6195352;22;20340;-89
2023/04/08 08:26:22;;;;;;;13.38;5.85;;;6.30;99.90;;;;;;6243133;22;20020;-89
2023/04/08 08:28:48;;;;;;;12.97;6.80;;;6.30;99.90;;;;;;6219924;22;20365;-89
2023/04/08 08:31:14;;;;;;;11.13;5.47;;;6.40;99.90;;;;;;6219284;22;20022;-89
2023/04/08 08:33:39;;;;;;;11.93;5.70;;;6.30;99.90;;;;;;6245223;22;20012;-90
2023/04/08 08:36:06;;;;;;;12.03;5.67;;;6.40;99.90;;;;;;6220140;22;20076;-88
2023/04/08 08:38:32;;;;;;;11.93;5.22;;;6.40;99.90;;;;;;6219212;22;20015;-90
2023/04/08 08:40:59;;;;;;;11.55;5.47;;;6.40;99.90;;;;;;6218661;22;20026;-88
2023/04/08 08:43:25;;;;;;;;;;;6.40;99.90;;;;;;6272340;22;20039;-88
2023/04/08 08:45:51;;;;;;;9.77;5.40;;;6.50;99.90;;;;;;6192360;22;19923;-88
2023/04/08 08:48:16;;;;;;;10.53;5.10;;;6.50;99.90;;;;;;6169283;22;20019;-89
2023/04/08 08:50:42;;;;;;;13.63;5.27;;;6.50;99.90;;;;;;6194580;22;20027;-89
2023/04/08 08:53:08;;;;;;;8.33;4.17;;;6.50;99.90;;;;;;6219897;22;20094;-89
2023/04/08 08:55:34;;;;;;;10.43;4.63;;;6.60;99.90;;;;;;6245002;22;20412;-89
2023/04/08 08:58:00;;;;;;;10.77;5.07;;;6.60;99.90;;;;;;6219961;22;20018;-90
2023/04/08 09:00:43;;;;;;;10.93;4.68;;;6.60;99.90;;;;;;6219762;22;20016;-89
2023/04/08 09:03:27;;;;;;;11.95;5.10;;;6.70;99.90;;;;;;6219544;22;20056;-88
2023/04/08 09:05:57;;;;;;;9.50;4.63;;;6.70;99.90;;;;;;6219796;22;20020;-90
2023/04/08 09:08:27;;;;;;;10.38;5.05;;;6.70;99.90;;;;;;6245322;22;20012;-89
2023/04/08 09:10:54;;;;;;;12.25;5.45;;;6.80;99.90;;;;;;6219572;22;20020;-90
2023/04/08 09:13:22;;;;;;;9.23;4.90;;;6.80;99.90;;;;;;6245256;22;20064;-90
2023/04/08 09:16:02;;;;;;;11.77;5.57;;;6.90;99.90;;;;;;6220171;22;20449;-90
2023/04/08 09:18:28;;;;;;;11.10;5.28;;;6.90;99.90;;;;;;6220053;22;20024;-90
2023/04/08 09:20:54;;;;;;;12.87;5.30;;;7.00;99.90;;;;;;6195063;22;20348;-89
2023/04/08 09:23:19;;;;;;;12.43;5.50;;;7.00;99.90;;;;;;6219988;22;20022;-90
2023/04/08 09:25:45;;;;;;;10.80;5.40;;;7.10;99.90;;;;;;6219893;22;20023;-89
2023/04/08 09:28:20;;;;;;;11.10;5.17;;;7.10;99.90;;;;;;6219794;22;20047;-89
2023/04/08 09:30:46;;;;;;;9.68;4.30;;;7.20;99.90;;;;;;6219643;22;20027;-90
2023/04/08 09:33:12;;;;;;;15.48;6.05;;;7.20;99.90;;;;;;6245701;22;20016;-90
2023/04/08 09:35:38;;;;;;;12.02;5.47;;;7.30;99.90;;;;;;6221128;22;20026;-90
2023/04/08 09:38:04;;;;;;;14.00;5.13;;;7.30;99.90;;;;;;6220795;22;20095;-90
2023/04/08 09:40:35;;;;;;;11.53;5.30;;;7.40;99.90;;;;;;6196664;22;20022;-89
2023/04/08 09:43:04;;;;;;;13.23;6.03;;;7.40;99.90;;;;;;6221295;22;20064;-89
2023/04/08 09:45:35;;;;;;;13.95;6.60;;;7.40;99.90;;;;;;6221061;22;20012;-90
2023/04/08 09:48:08;;;;;;;12.13;4.95;;;7.40;99.90;;;;;;6219792;22;20011;-89
2023/04/08 09:50:42;;;;;;;13.35;5.72;;;7.50;99.90;;;;;;6220511;22;20044;-89
2023/04/08 09:53:32;;;;;;;11.70;5.40;;;7.50;99.90;;;;;;6221103;22;20387;-89
2023/04/08 09:55:59;;;;;;;13.30;6.10;;;7.60;99.90;;;;;;6245696;22;20016;-90
2023/04/08 09:58:32;;;;;;;13.90;6.15;;;7.60;99.90;;;;;;6220698;22;20408;-89
2023/04/08 10:00:59;;;;;;;14.80;5.90;;;7.70;99.90;;;;;;6220999;22;20325;-89
2023/04/08 10:03:39;;;;;;;12.35;6.03;;;7.70;99.90;;;;;;6196176;22;20058;-89
2023/04/08 10:06:07;;;;;;;14.32;5.93;;;7.70;99.90;;;;;;6220885;22;20031;-89
2023/04/08 10:08:34;;;;;;;13.27;5.85;;;7.80;99.90;;;;;;6220765;22;20100;-89
2023/04/08 10:10:59;;;;;;;12.10;4.90;;;7.80;99.90;;;;;;6219708;22;20463;-89
2023/04/08 10:13:30;;;;;;;13.27;6.07;;;7.90;99.90;;;;;;6219607;22;20016;-90
2023/04/08 10:16:24;;;;;;;12.93;6.00;;;7.90;99.90;;;;;;6220925;22;20030;-91
2023/04/08 10:18:51;;;;;;;15.60;6.63;;;8.00;99.90;;;;;;6246059;22;20047;-88
2023/04/08 10:21:42;;;;;;;12.02;6.40;;;8.00;99.90;;;;;;6221609;22;20016;-90
2023/04/08 10:24:09;;;;;;;15.65;6.50;;;8.10;99.90;;;;;;6245962;22;20016;-88
2023/04/08 10:26:36;;;;;;;15.27;5.90;;;8.10;99.90;;;;;;6246151;22;20016;-88
2023/04/08 10:29:17;;;;;;;13.80;6.90;;;8.20;99.90;;;;;;6220563;22;20022;-89
2023/04/08 10:31:50;;;;;;;14.50;6.85;;;8.20;99.90;;;;;;6220870;22;20015;-89
2023/04/08 10:34:25;;;;;;;13.82;6.43;;;8.20;99.90;;;;;;6220546;22;20030;-87
2023/04/08 10:36:52;;;;;;;16.27;6.97;;;8.20;99.90;;;;;;6195736;22;20016;-88
2023/04/08 10:39:18;;;;;;;15.05;6.45;;;8.20;99.90;;;;;;6272655;22;20034;-88
2023/04/08 10:41:49;;;;;;;15.05;6.93;;;8.20;99.90;;;;;;6270958;22;20022;-88
2023/04/08 10:44:19;;;;;;;16.80;7.38;;;8.30;99.90;;;;;;6244910;22;20015;-88
2023/04/08 10:46:49;;;;;;;17.85;8.15;;;8.30;99.90;;;;;;6220413;22;20444;-89
2023/04/08 10:49:16;;;;;;;17.55;8.55;;;8.30;99.90;;;;;;6271127;22;20020;-88
2023/04/08 10:51:43;;;;;;;;;;;8.30;99.90;;;;;;6246622;22;20102;-88
2023/04/08 10:54:15;;;;;;;18.17;7.75;;;8.40;99.90;;;;;;6220565;22;20225;-89
2023/04/08 10:56:49;;;;;;;16.83;7.20;;;8.30;99.90;;;;;;6220575;22;20348;-89
2023/04/08 10:59:16;;;;;;;17.17;7.05;;;8.30;99.90;;;;;;6245665;22;20012;-89
2023/04/08 11:01:44;;;;;;;17.65;7.35;;;8.30;99.90;;;;;;6195593;22;20023;-88
2023/04/08 11:04:14;;;;;;;20.40;8.43;;;8.40;99.90;;;;;;6220082;22;20023;-87
2023/04/08 11:06:42;;;;;;;16.00;6.93;;;8.40;99.90;;;;;;6245750;22;20084;-88
2023/04/08 11:09:08;;;;;;;17.83;8.13;;;8.40;99.90;;;;;;6245608;22;20015;-89
2023/04/08 11:11:34;;;;;;;14.90;6.80;;;8.40;99.90;;;;;;6195671;22;20019;-88
2023/04/08 11:14:01;;;;;;;17.70;7.18;;;8.50;99.90;;;;;;6245597;22;20094;-89
2023/04/08 11:16:28;;;;;;;19.05;8.10;;;8.50;99.90;;;;;;6196811;22;20098;-89
2023/04/08 11:18:54;;;;;;;16.15;7.95;;;8.50;99.90;;;;;;6195268;22;20525;-88
2023/04/08 11:21:28;;;;;;;17.73;7.13;;;8.60;99.90;;;;;;6195366;22;20019;-87
2023/04/08 11:23:54;;;;;;;16.40;7.00;;;8.60;99.90;;;;;;6218371;22;20359;-88
2023/04/08 11:26:21;;;;;;;16.50;7.65;;;8.60;99.90;;;;;;6245659;22;20049;-88
2023/04/08 11:28:50;;;;;;;16.70;8.07;;;8.60;99.90;;;;;;6245660;22;20098;-89
2023/04/08 11:31:17;;;;;;;16.75;7.65;;;8.60;99.90;;;;;;6245839;22;20020;-90
2023/04/08 11:33:43;;;;;;;;;;;8.70;99.90;;;;;;6220752;22;20075;-88
2023/04/08 11:36:11;;;;;;;17.17;8.32;;;8.70;99.90;;;;;;6272637;22;19961;-88
2023/04/08 11:38:41;;;;;;;19.05;9.10;;;8.80;99.90;;;;;;6220354;22;20015;-89
2023/04/08 11:41:07;;;;;;;17.45;8.70;;;8.80;99.90;;;;;;6220385;22;20015;-90
2023/04/08 11:43:32;;;;;;;20.40;9.47;;;8.80;99.90;;;;;;6218963;22;20016;-88
2023/04/08 11:45:58;;;;;;;17.27;8.73;;;8.80;99.90;;;;;;6220479;22;20016;-88
2023/04/08 11:48:24;;;;;;;21.15;8.90;;;8.80;99.90;;;;;;6245161;22;20015;-88
2023/04/08 11:51:03;;;;;;;19.47;7.90;;;8.80;99.90;;;;;;6220458;22;20015;-87
2023/04/08 11:53:29;;;;;;;18.58;8.57;;;8.80;99.90;;;;;;6245353;22;20020;-89
2023/04/08 11:55:55;;;;;;;17.13;7.83;;;8.90;99.90;;;;;;6218774;22;20244;-88
2023/04/08 11:58:21;;;;;;;16.80;8.10;;;8.90;99.90;;;;;;6219926;22;20518;-87
2023/04/08 12:00:48;;;;;;;18.53;9.87;;;8.90;99.90;;;;;;6245219;22;20020;-89
2023/04/08 12:03:13;;;;;;;19.02;8.68;;;8.90;99.90;;;;;;6245143;22;20012;-87
2023/04/08 12:05:40;;;;;;;17.77;8.10;;;8.90;99.90;;;;;;6221490;22;20127;-89
2023/04/08 12:08:05;;;;;;;18.20;9.05;;;8.90;99.90;;;;;;6219239;22;20372;-87
2023/04/08 12:10:32;;;;;;;17.47;8.43;;;8.90;99.90;;;;;;6194479;22;20020;-89
2023/04/08 12:12:57;;;;;;;17.90;7.55;;;8.90;99.90;;;;;;6220280;22;20531;-87
2023/04/08 12:15:23;;;;;;;15.23;7.90;;;9.00;99.90;;;;;;6218784;22;20059;-88
2023/04/08 12:17:49;;;;;;;14.00;6.97;;;9.00;99.90;;;;;;6245581;22;20023;-89
2023/04/08 12:20:16;;;;;;;13.93;6.93;;;9.00;99.90;;;;;;6219614;22;20030;-87
2023/04/08 12:22:41;;;;;;;;;;;9.10;99.90;;;;;;6271569;22;20020;-89
2023/04/08 12:25:07;;;;;;;12.05;5.97;;;9.10;99.90;;;;;;6219846;22;19915;-88
2023/04/08 12:27:33;;;;;;;14.38;6.28;;;9.10;99.90;;;;;;6219954;22;20027;-88
2023/04/08 12:29:59;;;;;;;10.43;5.37;;;9.10;99.90;;;;;;6245003;22;20012;-87
2023/04/08 12:32:25;;;;;;;11.68;5.57;;;9.20;99.90;;;;;;6245059;22;20012;-88
2023/04/08 12:34:52;;;;;;;11.95;5.78;;;9.20;99.90;;;;;;6220162;22;20086;-88
2023/04/08 12:37:17;;;;;;;9.80;5.55;;;9.30;99.90;;;;;;6245025;22;20068;-88
2023/04/08 12:39:43;;;;;;;9.63;4.97;;;9.30;99.90;;;;;;6219501;22;20064;-88
2023/04/08 12:42:09;;;;;;;12.80;5.40;;;9.30;99.90;;;;;;6219752;22;20012;-88
2023/04/08 12:44:35;;;;;;;10.73;5.47;;;9.40;99.90;;;;;;6245183;22;20015;-87
2023/04/08 12:47:02;;;;;;;10.37;5.57;;;9.50;99.90;;;;;;6245828;22;20016;-88
2023/04/08 12:49:27;;;;;;;;;;;9.60;99.90;;;;;;6220384;22;20448;-88
2023/04/08 12:51:53;;;;;;;11.65;6.00;;;9.60;99.90;;;;;;6245091;22;19918;-88